createdAt,value
2018-09-25T00:00:45.207Z,8.80
2018-09-25T00:03:17.997Z,8.64
2018-09-25T00:05:50.897Z,8.53
2018-09-25T00:08:23.681Z,8.69
2018-09-25T00:10:56.485Z,8.70
2018-09-25T00:13:29.324Z,8.75
2018-09-25T00:16:02.234Z,8.77
2018-09-25T00:18:35.050Z,8.73
2018-09-25T00:21:07.799Z,8.71
2018-09-25T00:23:40.618Z,8.74
2018-09-25T00:26:13.429Z,8.70
2018-09-25T00:28:46.290Z,8.80
2018-09-25T00:31:19.213Z,8.83
2018-09-25T00:33:52.030Z,8.79
2018-09-25T00:36:24.882Z,8.79
2018-09-25T00:40:22.260Z,8.71
2018-09-25T00:42:55.197Z,8.54
2018-09-25T00:45:28.079Z,8.52
2018-09-25T00:48:00.982Z,8.53
2018-09-25T00:50:33.701Z,8.46
2018-09-25T00:53:06.545Z,8.38
2018-09-25T00:55:39.453Z,8.35
2018-09-25T00:58:12.262Z,8.38
2018-09-25T01:00:45.241Z,8.34
2018-09-25T01:03:18.027Z,8.27
2018-09-25T01:05:50.879Z,8.21
2018-09-25T01:08:23.635Z,8.22
2018-09-25T01:10:56.561Z,8.18
2018-09-25T01:13:29.360Z,8.13
2018-09-25T01:16:02.224Z,8.09
2018-09-25T01:18:35.052Z,7.99
2018-09-25T01:21:07.997Z,7.97
2018-09-25T01:23:40.752Z,8.03
2018-09-25T01:26:13.660Z,7.99
2018-09-25T01:28:46.350Z,7.95
2018-09-25T01:31:19.175Z,7.99
2018-09-25T01:33:51.977Z,8.04
2018-09-25T01:36:24.851Z,8.01
2018-09-25T01:38:57.633Z,7.98
2018-09-25T01:41:30.505Z,7.87
2018-09-25T01:44:03.355Z,7.80
2018-09-25T01:46:36.261Z,7.82
2018-09-25T01:50:33.607Z,7.78
2018-09-25T01:53:06.426Z,7.77
2018-09-25T01:55:39.332Z,7.80
2018-09-25T01:59:36.656Z,7.69
2018-09-25T02:02:09.623Z,7.56
2018-09-25T02:04:42.609Z,7.54
2018-09-25T02:10:51.204Z,7.49
2018-09-25T02:13:24.070Z,7.48
2018-09-25T02:15:57.051Z,7.52
2018-09-25T02:18:30.068Z,7.53
2018-09-25T02:21:03.040Z,7.59
2018-09-25T02:23:36.034Z,7.52
2018-09-25T02:26:08.861Z,7.48
2018-09-25T02:28:41.743Z,7.59
2018-09-25T02:31:14.709Z,7.53
2018-09-25T02:33:47.482Z,7.53
2018-09-25T02:36:20.570Z,7.50
2018-09-25T02:38:53.421Z,7.41
2018-09-25T02:41:26.320Z,7.47
2018-09-25T02:43:59.319Z,7.43
2018-09-25T02:46:32.258Z,7.31
2018-09-25T02:49:05.055Z,7.33
2018-09-25T02:51:37.964Z,7.28
2018-09-25T02:54:10.805Z,7.33
2018-09-25T02:56:43.703Z,7.33
2018-09-25T02:59:16.680Z,7.39
2018-09-25T03:01:49.577Z,7.32
2018-09-25T03:04:22.393Z,7.37
2018-09-25T03:06:55.350Z,7.31
2018-09-25T03:09:28.098Z,7.32
2018-09-25T03:12:01.069Z,7.32
2018-09-25T03:14:33.751Z,7.30
2018-09-25T03:17:06.685Z,7.28
2018-09-25T03:19:39.433Z,7.23
2018-09-25T03:22:12.304Z,7.11
2018-09-25T03:24:45.109Z,6.99
2018-09-25T03:27:18.156Z,6.90
2018-09-25T03:29:50.895Z,6.90
2018-09-25T03:32:23.842Z,6.89
2018-09-25T03:34:56.832Z,6.78
2018-09-25T03:37:29.857Z,6.74
2018-09-25T03:40:02.713Z,6.72
2018-09-25T03:42:35.657Z,6.69
2018-09-25T03:45:08.519Z,6.69
2018-09-25T03:47:41.500Z,6.71
2018-09-25T03:50:14.270Z,6.65
2018-09-25T03:52:47.158Z,6.62
2018-09-25T03:55:19.898Z,6.61
2018-09-25T03:57:52.610Z,6.62
2018-09-25T04:00:25.385Z,6.64
2018-09-25T04:02:58.346Z,6.69
2018-09-25T04:05:31.203Z,6.71
2018-09-25T04:08:04.086Z,6.70
2018-09-25T04:10:36.932Z,6.64
2018-09-25T04:13:09.812Z,6.60
2018-09-25T04:15:42.683Z,6.61
2018-09-25T04:18:15.566Z,6.69
2018-09-25T04:20:48.551Z,6.62
2018-09-25T04:23:21.414Z,6.66
2018-09-25T04:25:54.400Z,6.57
2018-09-25T04:28:27.191Z,6.56
2018-09-25T04:31:00.144Z,6.57
2018-09-25T04:33:32.925Z,6.58
2018-09-25T04:36:06.928Z,6.48
2018-09-25T04:38:39.876Z,6.35
2018-09-25T04:41:12.795Z,6.21
2018-09-25T04:43:45.624Z,6.20
2018-09-25T04:46:18.513Z,6.23
2018-09-25T04:48:51.451Z,6.18
2018-09-25T04:51:25.017Z,6.13
2018-09-25T04:53:58.071Z,6.10
2018-09-25T04:56:30.912Z,6.02
2018-09-25T04:59:03.763Z,6.02
2018-09-25T05:01:36.727Z,6.14
2018-09-25T05:04:09.496Z,6.13
2018-09-25T05:06:42.482Z,6.08
2018-09-25T05:10:39.888Z,6.07
2018-09-25T05:13:12.676Z,6.02
2018-09-25T05:18:23.889Z,5.93
2018-09-25T05:20:56.792Z,5.90
2018-09-25T05:23:29.772Z,5.95
2018-09-25T05:26:02.649Z,6.00
2018-09-25T05:28:35.442Z,5.92
2018-09-25T05:31:08.317Z,6.11
2018-09-25T05:33:41.036Z,6.20
2018-09-25T05:36:13.915Z,6.23
2018-09-25T05:38:46.729Z,6.20
2018-09-25T05:41:19.588Z,6.30
2018-09-25T05:43:52.630Z,6.43
2018-09-25T05:46:25.554Z,6.52
2018-09-25T05:48:58.487Z,6.62
2018-09-25T05:51:31.200Z,6.57
2018-09-25T05:54:03.907Z,6.62
2018-09-25T05:56:36.842Z,6.70
2018-09-25T05:59:09.622Z,6.68
2018-09-25T06:01:42.523Z,6.68
2018-09-25T06:04:15.368Z,6.48
2018-09-25T06:06:48.358Z,6.22
2018-09-25T06:09:21.204Z,6.20
2018-09-25T06:11:53.936Z,6.23
2018-09-25T06:14:26.937Z,6.19
2018-09-25T06:16:59.899Z,6.33
2018-09-25T06:19:32.778Z,6.55
2018-09-25T06:22:05.675Z,6.45
2018-09-25T06:24:38.697Z,6.44
2018-09-25T06:27:11.672Z,6.49
2018-09-25T06:29:44.551Z,6.53
2018-09-25T06:32:17.413Z,6.73
2018-09-25T06:34:50.356Z,6.81
2018-09-25T06:37:23.366Z,6.96
2018-09-25T06:39:56.170Z,7.11
2018-09-25T06:42:29.037Z,7.35
2018-09-25T06:45:01.969Z,7.47
2018-09-25T06:47:34.623Z,7.58
2018-09-25T06:50:07.430Z,7.81
2018-09-25T06:52:40.387Z,8.30
2018-09-25T06:55:13.223Z,9.41
2018-09-25T06:57:45.937Z,10.46
2018-09-25T07:00:19.072Z,11.40
2018-09-25T07:02:51.973Z,12.09
2018-09-25T07:05:24.793Z,12.93
2018-09-25T07:07:57.714Z,13.59
2018-09-25T07:10:30.805Z,14.16
2018-09-25T07:13:03.510Z,14.72
2018-09-25T07:15:36.291Z,14.81
2018-09-25T07:18:09.221Z,14.46
2018-09-25T07:20:42.112Z,13.61
2018-09-25T07:23:14.895Z,14.09
2018-09-25T07:25:47.747Z,15.04
2018-09-25T07:28:20.518Z,15.82
2018-09-25T07:30:53.438Z,16.01
2018-09-25T07:33:26.188Z,16.45
2018-09-25T07:35:59.431Z,16.72
2018-09-25T07:38:32.294Z,16.97
2018-09-25T07:41:05.232Z,17.24
2018-09-25T07:43:38.184Z,16.68
2018-09-25T07:46:11.393Z,16.85
2018-09-25T07:48:44.184Z,16.69
2018-09-25T07:51:17.122Z,15.38
2018-09-25T07:53:49.922Z,15.13
2018-09-25T07:56:22.849Z,15.16
2018-09-25T07:58:55.780Z,14.98
2018-09-25T08:01:28.693Z,15.01
2018-09-25T08:04:01.495Z,14.15
2018-09-25T08:06:34.436Z,13.40
2018-09-25T08:09:07.241Z,14.52
2018-09-25T08:11:40.170Z,16.25
2018-09-25T08:14:12.943Z,17.21
2018-09-25T08:16:45.963Z,16.54
2018-09-25T08:19:18.722Z,15.71
2018-09-25T08:21:51.583Z,16.06
2018-09-25T08:24:24.343Z,16.92
2018-09-25T08:26:57.280Z,17.00
2018-09-25T08:29:30.009Z,17.39
2018-09-25T08:32:03.043Z,17.45
2018-09-25T08:34:35.789Z,18.04
2018-09-25T08:37:08.628Z,17.72
2018-09-25T08:39:41.466Z,15.40
2018-09-25T08:42:14.349Z,14.46
2018-09-25T08:44:47.135Z,14.70
2018-09-25T08:47:20.189Z,15.55
2018-09-25T08:49:53.271Z,14.37
2018-09-25T08:52:26.115Z,14.01
2018-09-25T08:54:58.887Z,14.41
2018-09-25T08:57:31.777Z,14.27
2018-09-25T09:00:04.610Z,14.67
2018-09-25T09:02:37.575Z,13.99
2018-09-25T09:05:10.390Z,12.77
2018-09-25T09:07:43.089Z,12.96
2018-09-25T09:10:15.845Z,13.90
2018-09-25T09:12:48.788Z,14.87
2018-09-25T09:15:21.599Z,15.01
2018-09-25T09:17:54.559Z,14.97
2018-09-25T09:20:27.419Z,15.16
2018-09-25T09:23:00.432Z,14.97
2018-09-25T09:25:33.190Z,15.83
2018-09-25T09:28:06.052Z,16.38
2018-09-25T09:30:38.869Z,16.72
2018-09-25T09:33:11.763Z,17.55
2018-09-25T09:35:45.464Z,18.49
2018-09-25T09:38:18.284Z,17.46
2018-09-25T09:40:51.242Z,16.80
2018-09-25T09:43:24.270Z,17.72
2018-09-25T09:45:57.164Z,17.62
2018-09-25T09:48:29.987Z,18.36
2018-09-25T09:51:02.907Z,19.49
2018-09-25T09:53:35.911Z,20.23
2018-09-25T09:56:08.693Z,20.92
2018-09-25T09:58:41.730Z,21.51
2018-09-25T10:01:14.671Z,22.02
2018-09-25T10:03:47.756Z,21.38
2018-09-25T10:06:20.652Z,21.53
2018-09-25T10:08:53.618Z,21.67
2018-09-25T10:11:26.457Z,22.08
2018-09-25T10:13:59.239Z,21.58
2018-09-25T10:16:32.229Z,21.65
2018-09-25T10:19:05.227Z,21.89
2018-09-25T10:21:38.209Z,19.46
2018-09-25T10:24:11.286Z,18.28
2018-09-25T10:26:44.275Z,16.78
2018-09-25T10:29:17.197Z,16.59
2018-09-25T10:31:50.122Z,16.69
2018-09-25T10:34:22.938Z,16.60
2018-09-25T10:36:55.873Z,16.70
2018-09-25T10:39:28.666Z,17.39
2018-09-25T10:42:01.603Z,18.01
2018-09-25T10:44:34.360Z,19.49
2018-09-25T10:47:07.258Z,20.13
2018-09-25T10:49:40.056Z,19.95
2018-09-25T10:52:12.984Z,20.38
2018-09-25T10:54:45.708Z,20.73
2018-09-25T10:57:18.683Z,20.17
2018-09-25T10:59:51.485Z,19.79
2018-09-25T11:02:24.611Z,19.81
2018-09-25T11:04:57.480Z,20.31
2018-09-25T11:07:30.447Z,21.32
2018-09-25T11:10:03.304Z,21.10
2018-09-25T11:12:36.196Z,20.26
2018-09-25T11:15:09.243Z,19.95
2018-09-25T11:17:43.221Z,20.71
2018-09-25T11:20:16.055Z,20.18
2018-09-25T11:22:49.021Z,19.85
2018-09-25T11:25:21.818Z,20.55
2018-09-25T11:27:54.811Z,20.65
2018-09-25T11:30:27.729Z,19.22
2018-09-25T11:33:00.668Z,17.93
2018-09-25T11:35:33.417Z,17.41
2018-09-25T11:38:06.431Z,18.12
2018-09-25T11:40:39.388Z,19.42
2018-09-25T11:43:12.400Z,20.77
2018-09-25T11:45:45.292Z,21.42
2018-09-25T11:48:18.243Z,20.90
2018-09-25T11:50:51.163Z,21.10
2018-09-25T11:53:23.935Z,19.64
2018-09-25T11:55:56.794Z,19.97
2018-09-25T11:58:29.531Z,20.44
2018-09-25T12:01:02.422Z,19.98
2018-09-25T12:03:35.481Z,19.95
2018-09-25T12:06:08.316Z,18.89
2018-09-25T12:08:41.146Z,19.44
2018-09-25T12:11:13.990Z,18.57
2018-09-25T12:13:46.858Z,18.72
2018-09-25T12:16:19.718Z,18.13
2018-09-25T12:18:52.528Z,17.78
2018-09-25T12:21:25.392Z,19.27
2018-09-25T12:23:58.106Z,20.40
2018-09-25T12:26:31.028Z,20.90
2018-09-25T12:29:04.016Z,19.91
2018-09-25T12:31:36.922Z,20.70
2018-09-25T12:34:09.695Z,20.94
2018-09-25T12:36:42.691Z,21.40
2018-09-25T12:39:15.472Z,21.55
2018-09-25T12:41:48.366Z,21.25
2018-09-25T12:44:21.097Z,21.34
2018-09-25T12:46:54.060Z,20.33
2018-09-25T12:49:26.863Z,21.39
2018-09-25T12:51:59.737Z,21.84
2018-09-25T12:54:32.561Z,22.09
2018-09-25T12:57:05.463Z,21.86
2018-09-25T12:59:38.209Z,21.83
2018-09-25T13:02:11.127Z,22.13
2018-09-25T13:04:43.944Z,21.90
2018-09-25T13:07:16.918Z,22.00
2018-09-25T13:09:49.678Z,21.79
2018-09-25T13:12:22.653Z,20.92
2018-09-25T13:14:55.484Z,21.25
2018-09-25T13:17:28.402Z,19.84
2018-09-25T13:20:01.229Z,20.10
2018-09-25T13:22:34.096Z,20.65
2018-09-25T13:25:06.925Z,21.26
2018-09-25T13:27:39.809Z,21.75
2018-09-25T13:30:12.933Z,21.98
2018-09-25T13:32:45.785Z,22.06
2018-09-25T13:35:18.610Z,22.19
2018-09-25T13:37:51.545Z,22.29
2018-09-25T13:40:24.354Z,20.34
2018-09-25T13:42:57.937Z,20.15
2018-09-25T13:45:30.829Z,19.51
2018-09-25T13:48:03.617Z,20.14
2018-09-25T13:50:36.318Z,20.78
2018-09-25T13:53:09.144Z,19.87
2018-09-25T13:55:42.009Z,20.38
2018-09-25T13:58:14.760Z,21.08
2018-09-25T14:00:47.693Z,21.75
2018-09-25T14:03:20.701Z,22.02
2018-09-25T14:05:53.670Z,22.25
2018-09-25T14:08:26.414Z,22.42
2018-09-25T14:10:59.368Z,22.22
2018-09-25T14:13:32.192Z,21.62
2018-09-25T14:16:05.091Z,21.84
2018-09-25T14:18:37.902Z,21.79
2018-09-25T14:21:10.653Z,21.69
2018-09-25T14:23:43.634Z,21.51
2018-09-25T14:26:16.525Z,20.71
2018-09-25T14:28:49.341Z,20.84
2018-09-25T14:31:22.252Z,21.22
2018-09-25T14:33:55.198Z,21.60
2018-09-25T14:36:28.127Z,21.86
2018-09-25T14:39:00.862Z,21.98
2018-09-25T14:41:33.810Z,20.11
2018-09-25T14:44:06.702Z,20.53
2018-09-25T14:46:39.623Z,21.08
2018-09-25T14:49:12.369Z,21.71
2018-09-25T14:51:45.225Z,22.06
2018-09-25T14:54:18.183Z,22.16
2018-09-25T14:56:51.032Z,22.14
2018-09-25T14:59:23.823Z,22.06
2018-09-25T15:01:56.682Z,22.24
2018-09-25T15:04:29.496Z,21.99
2018-09-25T15:07:02.331Z,20.58
2018-09-25T15:09:34.991Z,20.25
2018-09-25T15:12:08.796Z,20.79
2018-09-25T15:14:41.569Z,21.27
2018-09-25T15:17:14.453Z,21.01
2018-09-25T15:19:47.149Z,21.67
2018-09-25T15:22:20.336Z,21.83
2018-09-25T15:24:53.072Z,21.99
2018-09-25T15:27:26.016Z,22.18
2018-09-25T15:29:58.925Z,22.52
2018-09-25T15:32:31.847Z,22.19
2018-09-25T15:35:04.648Z,22.19
2018-09-25T15:37:37.520Z,22.51
2018-09-25T15:40:10.582Z,22.50
2018-09-25T15:42:43.530Z,22.34
2018-09-25T15:45:16.591Z,21.89
2018-09-25T15:47:49.557Z,21.84
2018-09-25T15:50:22.298Z,21.71
2018-09-25T15:52:55.007Z,21.41
2018-09-25T15:55:27.787Z,21.00
2018-09-25T15:58:00.656Z,20.92
2018-09-25T16:00:33.364Z,21.30
2018-09-25T16:03:06.196Z,21.58
2018-09-25T16:05:39.114Z,21.55
2018-09-25T16:08:12.020Z,21.71
2018-09-25T16:10:44.899Z,21.34
2018-09-25T16:13:17.877Z,21.11
2018-09-25T16:15:50.811Z,20.97
2018-09-25T16:18:23.537Z,20.74
2018-09-25T16:20:56.333Z,20.48
2018-09-25T16:23:29.108Z,20.22
2018-09-25T16:26:02.042Z,19.88
2018-09-25T16:28:34.829Z,19.62
2018-09-25T16:31:07.692Z,19.25
2018-09-25T16:33:40.477Z,18.91
2018-09-25T16:36:13.944Z,18.74
2018-09-25T16:38:46.700Z,18.63
2018-09-25T16:41:19.592Z,18.63
2018-09-25T16:43:52.338Z,18.48
2018-09-25T16:46:25.241Z,18.19
2018-09-25T16:48:57.969Z,17.81
2018-09-25T16:51:30.825Z,17.48
2018-09-25T16:54:03.663Z,17.08
2018-09-25T16:56:36.462Z,16.94
2018-09-25T16:59:09.384Z,16.78
2018-09-25T17:01:42.306Z,16.66
2018-09-25T17:04:15.137Z,16.61
2018-09-25T17:06:48.063Z,16.46
2018-09-25T17:09:20.808Z,16.21
2018-09-25T17:11:53.537Z,15.89
2018-09-25T17:14:26.340Z,15.64
2018-09-25T17:16:59.302Z,15.60
2018-09-25T17:19:32.227Z,15.59
2018-09-25T17:22:05.220Z,15.45
2018-09-25T17:24:37.967Z,15.34
2018-09-25T17:27:10.853Z,15.17
2018-09-25T17:29:43.638Z,14.85
2018-09-25T17:32:16.557Z,14.91
2018-09-25T17:34:49.445Z,14.76
2018-09-25T17:37:22.247Z,14.66
2018-09-25T17:39:55.060Z,14.62
2018-09-25T17:42:28.060Z,14.56
2018-09-25T17:45:00.993Z,14.41
2018-09-25T17:47:33.929Z,14.27
2018-09-25T17:50:06.701Z,14.25
2018-09-25T17:52:39.371Z,14.07
2018-09-25T17:55:12.333Z,14.03
2018-09-25T17:57:45.266Z,13.86
2018-09-25T18:00:17.976Z,13.83
2018-09-25T18:02:50.859Z,13.82
2018-09-25T18:05:23.593Z,13.70
2018-09-25T18:07:56.442Z,13.63
2018-09-25T18:10:29.344Z,13.57
2018-09-25T18:13:02.163Z,13.50
2018-09-25T18:15:34.919Z,13.45
2018-09-25T18:18:07.871Z,13.33
2018-09-25T18:20:40.842Z,13.26
2018-09-25T18:23:13.572Z,13.17
2018-09-25T18:25:46.484Z,13.13
2018-09-25T18:28:19.436Z,13.11
2018-09-25T18:30:52.200Z,13.01
2018-09-25T18:33:25.101Z,12.93
2018-09-25T18:35:58.461Z,12.89
2018-09-25T18:38:31.414Z,12.79
2018-09-25T18:41:04.360Z,12.75
2018-09-25T18:43:37.202Z,12.74
2018-09-25T18:46:10.097Z,12.69
2018-09-25T18:48:42.909Z,12.65
2018-09-25T18:51:15.758Z,12.61
2018-09-25T18:53:48.632Z,12.44
2018-09-25T18:56:21.619Z,12.39
2018-09-25T18:58:54.597Z,12.36
2018-09-25T19:01:27.553Z,12.36
2018-09-25T19:04:00.311Z,12.28
2018-09-25T19:06:33.162Z,12.13
2018-09-25T19:09:06.131Z,12.17
2018-09-25T19:11:39.070Z,12.08
2018-09-25T19:14:11.872Z,12.07
2018-09-25T19:16:44.702Z,12.05
2018-09-25T19:19:17.528Z,11.91
2018-09-25T19:21:50.492Z,11.93
2018-09-25T19:24:23.226Z,11.92
2018-09-25T19:26:56.136Z,11.84
2018-09-25T19:29:29.050Z,11.74
2018-09-25T19:32:01.978Z,11.71
2018-09-25T19:34:34.809Z,11.70
2018-09-25T19:37:07.673Z,11.74
2018-09-25T19:39:40.470Z,11.60
2018-09-25T19:42:13.427Z,11.61
2018-09-25T19:44:46.403Z,11.56
2018-09-25T19:47:19.296Z,11.40
2018-09-25T19:49:52.055Z,11.37
2018-09-25T19:52:25.008Z,11.40
2018-09-25T19:54:57.730Z,11.36
2018-09-25T19:57:30.502Z,11.29
2018-09-25T20:00:03.408Z,11.23
2018-09-25T20:02:36.267Z,11.17
2018-09-25T20:05:09.304Z,11.21
2018-09-25T20:07:42.214Z,11.18
2018-09-25T20:10:15.090Z,11.17
2018-09-25T20:12:47.994Z,11.09
2018-09-25T20:15:20.844Z,11.04
2018-09-25T20:17:53.752Z,11.06
2018-09-25T20:20:26.553Z,10.99
2018-09-25T20:22:59.426Z,10.95
2018-09-25T20:25:32.208Z,10.94
2018-09-25T20:28:05.109Z,10.79
2018-09-25T20:30:37.960Z,10.76
2018-09-25T20:33:10.996Z,10.69
2018-09-25T20:35:43.841Z,10.57
2018-09-25T20:38:16.651Z,10.51
2018-09-25T20:40:49.360Z,10.58
2018-09-25T20:43:22.171Z,10.66
2018-09-25T20:45:55.066Z,10.66
2018-09-25T20:48:27.855Z,10.72
2018-09-25T20:51:00.805Z,10.71
2018-09-25T20:53:33.647Z,10.65
2018-09-25T20:56:06.534Z,10.52
2018-09-25T20:58:39.319Z,10.46
2018-09-25T21:01:12.276Z,10.42
2018-09-25T21:03:45.075Z,10.45
2018-09-25T21:06:17.928Z,10.33
2018-09-25T21:08:50.688Z,10.27
2018-09-25T21:11:23.567Z,10.24
2018-09-25T21:13:56.549Z,10.21
2018-09-25T21:16:29.458Z,10.23
2018-09-25T21:19:02.186Z,10.12
2018-09-25T21:21:35.039Z,10.08
2018-09-25T21:24:07.820Z,10.08
2018-09-25T21:26:40.639Z,10.01
2018-09-25T21:29:13.527Z,9.84
2018-09-25T21:31:46.411Z,9.78
2018-09-25T21:34:19.380Z,9.72
2018-09-25T21:36:52.298Z,9.71
2018-09-25T21:39:25.194Z,9.62
2018-09-25T21:41:58.107Z,9.48
2018-09-25T21:44:31.068Z,9.47
2018-09-25T21:47:03.963Z,9.52
2018-09-25T21:49:36.712Z,9.48
2018-09-25T21:52:09.647Z,9.42
2018-09-25T21:54:42.772Z,9.39
2018-09-25T21:57:23.683Z,9.23
2018-09-25T21:59:56.615Z,9.41
2018-09-25T22:02:29.424Z,9.37
2018-09-25T22:05:02.437Z,9.26
2018-09-25T22:07:35.373Z,9.08
2018-09-25T22:10:08.169Z,9.04
2018-09-25T22:12:41.089Z,9.01
2018-09-25T22:15:13.882Z,8.99
2018-09-25T22:17:46.528Z,8.98
2018-09-25T22:20:19.248Z,8.96
2018-09-25T22:22:52.168Z,8.88
2018-09-25T22:25:25.021Z,8.93
2018-09-25T22:27:57.913Z,8.98
2018-09-25T22:30:30.759Z,8.99
2018-09-25T22:33:03.531Z,8.94
2018-09-25T22:35:36.334Z,8.80
2018-09-25T22:38:09.199Z,8.81
2018-09-25T22:40:42.101Z,8.70
2018-09-25T22:43:14.872Z,8.69
2018-09-25T22:45:47.763Z,8.74
2018-09-25T22:48:20.484Z,8.77
2018-09-25T22:50:53.437Z,8.52
2018-09-25T22:53:26.138Z,8.28
2018-09-25T22:55:59.034Z,8.24
2018-09-25T22:58:31.766Z,8.28
2018-09-25T23:01:04.681Z,8.27
2018-09-25T23:03:37.421Z,8.35
2018-09-25T23:06:10.369Z,8.28
2018-09-25T23:08:43.242Z,8.32
2018-09-25T23:11:16.178Z,8.39
2018-09-25T23:13:48.984Z,8.44
2018-09-25T23:16:21.933Z,8.40
2018-09-25T23:18:54.750Z,8.22
2018-09-25T23:21:27.684Z,8.21
2018-09-25T23:24:00.478Z,8.13
2018-09-25T23:26:33.457Z,8.07
2018-09-25T23:29:06.434Z,8.03
2018-09-25T23:31:39.203Z,8.10
2018-09-25T23:34:11.957Z,8.10
2018-09-25T23:36:45.038Z,7.96
2018-09-25T23:39:17.773Z,8.01
2018-09-25T23:41:52.510Z,7.94
2018-09-25T23:44:25.524Z,7.99
2018-09-25T23:47:28.588Z,8.02
2018-09-25T23:50:03.639Z,7.94
2018-09-25T23:52:43.169Z,7.75
2018-09-25T23:56:17.916Z,7.78
2018-09-25T23:58:49.834Z,7.81
